sensor_id;sensor_type;location;lat;lon;timestamp;pressure;altitude;pressure_sealevel;temperature;humidity
9035;BME280;4552;43.422;24.592;2023-11-18T00:02:12;99200.63;;;7.78;100.00
9035;BME280;4552;43.422;24.592;2023-11-18T00:08:00;99199.69;;;7.82;100.00
9035;BME280;4552;43.422;24.592;2023-11-18T00:10:28;99204.91;;;7.82;100.00
9035;BME280;4552;43.422;24.592;2023-11-18T00:12:55;99205.03;;;7.73;100.00
9035;BME280;4552;43.422;24.592;2023-11-18T00:15:24;99192.94;;;7.67;100.00
9035;BME280;4552;43.422;24.592;2023-11-18T00:17:51;99201.56;;;7.72;100.00
9035;BME280;4552;43.422;24.592;2023-11-18T00:27:02;99205.88;;;7.75;100.00
9035;BME280;4552;43.422;24.592;2023-11-18T00:29:31;99214.47;;;7.80;100.00
9035;BME280;4552;43.422;24.592;2023-11-18T00:32:00;99229.16;;;7.87;100.00
9035;BME280;4552;43.422;24.592;2023-11-18T00:34:28;99222.16;;;7.87;100.00
9035;BME280;4552;43.422;24.592;2023-11-18T00:36:55;99223.13;;;7.83;100.00
9035;BME280;4552;43.422;24.592;2023-11-18T00:39:23;99230.09;;;7.80;100.00
9035;BME280;4552;43.422;24.592;2023-11-18T00:41:50;99217.88;;;7.85;100.00
9035;BME280;4552;43.422;24.592;2023-11-18T00:44:17;99218.78;;;7.84;100.00
9035;BME280;4552;43.422;24.592;2023-11-18T00:46:44;99212.66;;;7.85;100.00
9035;BME280;4552;43.422;24.592;2023-11-18T00:49:22;99185.84;;;7.78;100.00
9035;BME280;4552;43.422;24.592;2023-11-18T00:52:03;99190.88;;;7.89;100.00
9035;BME280;4552;43.422;24.592;2023-11-18T00:54:30;99176.28;;;7.79;100.00
9035;BME280;4552;43.422;24.592;2023-11-18T00:56:57;99196.06;;;7.90;100.00
9035;BME280;4552;43.422;24.592;2023-11-18T00:59:24;99188.38;;;7.83;100.00
9035;BME280;4552;43.422;24.592;2023-11-18T01:01:52;99184.88;;;7.85;100.00
9035;BME280;4552;43.422;24.592;2023-11-18T01:07:51;99175.16;;;7.95;100.00
9035;BME280;4552;43.422;24.592;2023-11-18T01:10:18;99178.56;;;8.00;100.00
9035;BME280;4552;43.422;24.592;2023-11-18T01:12:45;99188.19;;;7.95;100.00
9035;BME280;4552;43.422;24.592;2023-11-18T01:15:12;99201.94;;;8.04;100.00
9035;BME280;4552;43.422;24.592;2023-11-18T01:17:39;99210.59;;;8.08;100.00
9035;BME280;4552;43.422;24.592;2023-11-18T01:23:30;99192.44;;;8.02;100.00
9035;BME280;4552;43.422;24.592;2023-11-18T01:26:25;99189.63;;;8.14;100.00
9035;BME280;4552;43.422;24.592;2023-11-18T01:28:52;99158.47;;;8.08;100.00
9035;BME280;4552;43.422;24.592;2023-11-18T01:31:26;99141.03;;;8.11;100.00
9035;BME280;4552;43.422;24.592;2023-11-18T04:08:48;99234.84;;;6.76;100.00
9035;BME280;4552;43.422;24.592;2023-11-18T04:11:16;99233.94;;;6.77;100.00
9035;BME280;4552;43.422;24.592;2023-11-18T04:14:00;99246.91;;;6.83;100.00
9035;BME280;4552;43.422;24.592;2023-11-18T04:16:30;99252.94;;;6.85;100.00
9035;BME280;4552;43.422;24.592;2023-11-18T04:18:57;99257.31;;;6.80;100.00
9035;BME280;4552;43.422;24.592;2023-11-18T04:21:24;99260.84;;;6.76;100.00
9035;BME280;4552;43.422;24.592;2023-11-18T06:20:34;99287.09;;;6.48;92.06
9035;BME280;4552;43.422;24.592;2023-11-18T07:00:07;99257.59;;;6.53;90.40
9035;BME280;4552;43.422;24.592;2023-11-18T07:02:35;99244.63;;;6.50;90.36
9035;BME280;4552;43.422;24.592;2023-11-18T07:05:02;99242.06;;;6.46;90.52
9035;BME280;4552;43.422;24.592;2023-11-18T07:07:41;99246.28;;;6.56;90.53
9035;BME280;4552;43.422;24.592;2023-11-18T07:37:06;99270.34;;;6.79;88.08
9035;BME280;4552;43.422;24.592;2023-11-18T07:49:41;99278.88;;;6.93;86.63
9035;BME280;4552;43.422;24.592;2023-11-18T07:52:12;99293.63;;;6.92;87.67
9035;BME280;4552;43.422;24.592;2023-11-18T07:58:01;99269.97;;;7.18;87.66
9035;BME280;4552;43.422;24.592;2023-11-18T08:00:29;99269.25;;;7.02;88.21
9035;BME280;4552;43.422;24.592;2023-11-18T08:02:56;99264.00;;;7.05;88.73
9035;BME280;4552;43.422;24.592;2023-11-18T08:05:25;99283.19;;;6.95;88.85
9035;BME280;4552;43.422;24.592;2023-11-18T08:07:55;99265.91;;;6.90;88.84
9035;BME280;4552;43.422;24.592;2023-11-18T08:37:22;99298.16;;;6.74;90.63
9035;BME280;4552;43.422;24.592;2023-11-18T09:33:40;99273.75;;;6.87;88.56
9035;BME280;4552;43.422;24.592;2023-11-18T09:36:15;99285.06;;;6.81;88.29
9035;BME280;4552;43.422;24.592;2023-11-18T09:39:04;99290.19;;;6.90;88.94
9035;BME280;4552;43.422;24.592;2023-11-18T09:41:43;99272.00;;;6.87;88.83
9035;BME280;4552;43.422;24.592;2023-11-18T09:44:12;99294.59;;;6.84;86.96
9035;BME280;4552;43.422;24.592;2023-11-18T09:46:46;99268.66;;;6.76;88.17
9035;BME280;4552;43.422;24.592;2023-11-18T09:49:27;99293.63;;;6.92;87.90
9035;BME280;4552;43.422;24.592;2023-11-18T09:52:07;99293.47;;;7.11;87.09
9035;BME280;4552;43.422;24.592;2023-11-18T09:54:40;99276.00;;;7.19;87.26
9035;BME280;4552;43.422;24.592;2023-11-18T09:57:16;99262.25;;;7.11;86.78
9035;BME280;4552;43.422;24.592;2023-11-18T09:59:58;99294.19;;;7.22;86.83
9035;BME280;4552;43.422;24.592;2023-11-18T10:02:46;99299.53;;;7.08;87.12
9035;BME280;4552;43.422;24.592;2023-11-18T10:05:23;99290.94;;;7.00;86.24
9035;BME280;4552;43.422;24.592;2023-11-18T10:07:54;99300.59;;;6.90;86.54
9035;BME280;4552;43.422;24.592;2023-11-18T10:37:25;99312.56;;;7.05;85.91
9035;BME280;4552;43.422;24.592;2023-11-18T10:50:13;99308.97;;;7.20;85.97
9035;BME280;4552;43.422;24.592;2023-11-18T10:52:45;99301.97;;;7.23;85.81
9035;BME280;4552;43.422;24.592;2023-11-18T10:55:35;99312.25;;;7.34;85.69
9035;BME280;4552;43.422;24.592;2023-11-18T10:58:20;99307.06;;;7.34;85.41
9035;BME280;4552;43.422;24.592;2023-11-18T11:00:49;99329.66;;;7.32;84.32
9035;BME280;4552;43.422;24.592;2023-11-18T11:03:28;99299.28;;;7.32;83.56
9035;BME280;4552;43.422;24.592;2023-11-18T11:05:59;99299.28;;;7.32;83.74
9035;BME280;4552;43.422;24.592;2023-11-18T11:08:33;99279.28;;;7.36;83.55
9035;BME280;4552;43.422;24.592;2023-11-18T11:11:03;99309.66;;;7.34;83.31
9035;BME280;4552;43.422;24.592;2023-11-18T11:13:39;99289.81;;;7.27;82.71
9035;BME280;4552;43.422;24.592;2023-11-18T11:16:10;99291.53;;;7.26;82.77
9035;BME280;4552;43.422;24.592;2023-11-18T11:18:43;99273.34;;;7.25;83.40
9035;BME280;4552;43.422;24.592;2023-11-18T11:21:14;99274.25;;;7.21;83.08
9035;BME280;4552;43.422;24.592;2023-11-18T11:23:50;99285.47;;;7.27;83.62
9035;BME280;4552;43.422;24.592;2023-11-18T11:26:28;99286.25;;;7.34;83.64
9035;BME280;4552;43.422;24.592;2023-11-18T11:29:24;99290.75;;;7.20;83.00
9035;BME280;4552;43.422;24.592;2023-11-18T11:32:18;99279.44;;;7.22;83.89
9035;BME280;4552;43.422;24.592;2023-11-18T11:35:16;99287.38;;;7.12;83.50
9035;BME280;4552;43.422;24.592;2023-11-18T11:37:47;99292.47;;;7.22;83.47
9035;BME280;4552;43.422;24.592;2023-11-18T12:14:03;99307.38;;;7.05;84.04
9035;BME280;4552;43.422;24.592;2023-11-18T12:17:01;99303.00;;;7.08;84.37
9035;BME280;4552;43.422;24.592;2023-11-18T12:19:34;99296.97;;;7.03;84.80
9035;BME280;4552;43.422;24.592;2023-11-18T12:22:14;99291.78;;;7.03;84.42
9035;BME280;4552;43.422;24.592;2023-11-18T12:28:10;99322.97;;;7.05;84.45
9035;BME280;4552;43.422;24.592;2023-11-18T12:30:42;99300.56;;;6.93;85.36
9035;BME280;4552;43.422;24.592;2023-11-18T12:33:59;99322.13;;;7.01;85.18
9035;BME280;4552;43.422;24.592;2023-11-18T12:40:08;99310.09;;;6.94;84.79
9035;BME280;4552;43.422;24.592;2023-11-18T12:42:58;99309.13;;;7.01;85.16
9035;BME280;4552;43.422;24.592;2023-11-18T12:48:43;99298.72;;;7.01;85.10
9035;BME280;4552;43.422;24.592;2023-11-18T12:51:25;99300.44;;;7.05;85.03
9035;BME280;4552;43.422;24.592;2023-11-18T12:53:54;99290.06;;;7.02;85.04
9035;BME280;4552;43.422;24.592;2023-11-18T12:59:10;99324.72;;;7.07;85.30
9035;BME280;4552;43.422;24.592;2023-11-18T13:01:50;99316.13;;;6.96;85.34
9035;BME280;4552;43.422;24.592;2023-11-18T13:04:22;99322.09;;;7.09;85.88
9035;BME280;4552;43.422;24.592;2023-11-18T13:06:50;99322.22;;;6.94;86.33
9035;BME280;4552;43.422;24.592;2023-11-18T13:09:22;99316.91;;;7.06;87.15
9035;BME280;4552;43.422;24.592;2023-11-18T13:12:15;99324.81;;;6.95;86.44
9035;BME280;4552;43.422;24.592;2023-11-18T13:14:44;99329.22;;;6.89;86.63
9035;BME280;4552;43.422;24.592;2023-11-18T13:17:14;99311.88;;;6.88;86.59
9035;BME280;4552;43.422;24.592;2023-11-18T13:19:43;99323.03;;;7.00;86.86
9035;BME280;4552;43.422;24.592;2023-11-18T13:22:12;99342.94;;;7.01;86.82
9035;BME280;4552;43.422;24.592;2023-11-18T13:24:41;99335.19;;;6.98;86.52
9035;BME280;4552;43.422;24.592;2023-11-18T13:27:23;99328.38;;;6.85;85.85
9035;BME280;4552;43.422;24.592;2023-11-18T13:29:51;99347.28;;;7.05;85.42
9035;BME280;4552;43.422;24.592;2023-11-18T13:32:35;99339.50;;;7.01;84.82
9035;BME280;4552;43.422;24.592;2023-11-18T13:35:03;99349.91;;;7.01;84.03
9035;BME280;4552;43.422;24.592;2023-11-18T13:37:32;99338.75;;;6.88;84.75
9035;BME280;4552;43.422;24.592;2023-11-18T14:37:11;99391.44;;;7.12;81.10
9035;BME280;4552;43.422;24.592;2023-11-18T14:39:59;99379.31;;;7.12;81.20
9035;BME280;4552;43.422;24.592;2023-11-18T14:42:26;99364.59;;;7.08;80.96
9035;BME280;4552;43.422;24.592;2023-11-18T14:44:54;99390.53;;;7.16;80.71
9035;BME280;4552;43.422;24.592;2023-11-18T14:47:35;99374.19;;;7.00;80.50
9035;BME280;4552;43.422;24.592;2023-11-18T14:50:10;99375.91;;;7.04;80.84
9035;BME280;4552;43.422;24.592;2023-11-18T14:52:46;99387.91;;;7.17;81.61
9035;BME280;4552;43.422;24.592;2023-11-18T14:59:13;99406.19;;;7.09;81.51
9035;BME280;4552;43.422;24.592;2023-11-18T15:01:40;99389.78;;;7.06;82.00
9035;BME280;4552;43.422;24.592;2023-11-18T15:04:09;99383.63;;;7.12;81.68
9035;BME280;4552;43.422;24.592;2023-11-18T15:06:37;99404.59;;;6.96;81.99
9035;BME280;4552;43.422;24.592;2023-11-18T15:50:17;99434.00;;;7.01;82.37
9035;BME280;4552;43.422;24.592;2023-11-18T15:53:07;99415.00;;;6.93;82.41
9035;BME280;4552;43.422;24.592;2023-11-18T17:02:18;99501.78;;;6.80;85.53
9035;BME280;4552;43.422;24.592;2023-11-18T17:04:48;99528.59;;;6.91;85.77
9035;BME280;4552;43.422;24.592;2023-11-18T17:07:18;99512.16;;;6.83;85.45
9035;BME280;4552;43.422;24.592;2023-11-18T17:23:53;99552.97;;;6.77;87.46
9035;BME280;4552;43.422;24.592;2023-11-18T17:26:23;99569.34;;;6.92;87.07
9035;BME280;4552;43.422;24.592;2023-11-18T17:29:05;99552.03;;;6.88;86.86
9035;BME280;4552;43.422;24.592;2023-11-18T17:31:52;99544.31;;;6.76;87.64
9035;BME280;4552;43.422;24.592;2023-11-18T17:34:22;99571.94;;;6.92;87.27
9035;BME280;4552;43.422;24.592;2023-11-18T17:36:50;99536.47;;;6.82;87.45
9035;BME280;4552;43.422;24.592;2023-11-18T18:43:37;99666.47;;;6.91;88.62
9035;BME280;4552;43.422;24.592;2023-11-18T18:46:08;99666.44;;;6.97;88.82
9035;BME280;4552;43.422;24.592;2023-11-18T18:48:35;99668.16;;;6.98;89.24
9035;BME280;4552;43.422;24.592;2023-11-18T18:51:09;99682.97;;;6.90;88.23
9035;BME280;4552;43.422;24.592;2023-11-18T18:53:59;99683.81;;;6.85;88.81
9035;BME280;4552;43.422;24.592;2023-11-18T19:06:34;99705.53;;;6.79;90.99
9035;BME280;4552;43.422;24.592;2023-11-18T19:09:01;99704.63;;;6.83;90.91
9035;BME280;4552;43.422;24.592;2023-11-18T19:11:41;99715.03;;;6.86;90.69
9035;BME280;4552;43.422;24.592;2023-11-18T19:14:13;99699.47;;;6.73;91.24
9035;BME280;4552;43.422;24.592;2023-11-18T19:16:48;99722.81;;;6.92;91.58
9035;BME280;4552;43.422;24.592;2023-11-18T19:19:43;99726.31;;;6.90;90.98
9035;BME280;4552;43.422;24.592;2023-11-18T19:22:22;99719.41;;;6.72;91.62
9035;BME280;4552;43.422;24.592;2023-11-18T20:02:07;99754.97;;;6.40;96.12
9035;BME280;4552;43.422;24.592;2023-11-18T20:04:46;99745.44;;;6.32;96.92
9035;BME280;4552;43.422;24.592;2023-11-18T20:07:16;99732.44;;;6.27;96.74
9035;BME280;4552;43.422;24.592;2023-11-18T20:10:01;99762.78;;;6.48;96.56
9035;BME280;4552;43.422;24.592;2023-11-18T20:12:42;99762.78;;;6.45;96.27
9035;BME280;4552;43.422;24.592;2023-11-18T20:15:23;99748.91;;;6.34;96.16
9035;BME280;4552;43.422;24.592;2023-11-18T20:18:09;99740.25;;;6.24;96.00
9035;BME280;4552;43.422;24.592;2023-11-18T20:20:37;99759.31;;;6.37;96.45
9035;BME280;4552;43.422;24.592;2023-11-18T20:23:07;99753.22;;;6.51;95.82
9035;BME280;4552;43.422;24.592;2023-11-18T20:32:34;99718.59;;;6.22;97.26
9035;BME280;4552;43.422;24.592;2023-11-18T20:35:11;99733.34;;;6.22;97.90
9035;BME280;4552;43.422;24.592;2023-11-18T20:37:39;99742.84;;;6.21;98.46
9035;BME280;4552;43.422;24.592;2023-11-18T20:40:15;99747.16;;;6.33;98.60
9035;BME280;4552;43.422;24.592;2023-11-18T20:42:58;99729.84;;;6.18;98.56
9035;BME280;4552;43.422;24.592;2023-11-18T20:45:45;99732.44;;;6.29;99.19
9035;BME280;4552;43.422;24.592;2023-11-18T20:48:18;99733.31;;;6.29;99.16
9035;BME280;4552;43.422;24.592;2023-11-18T20:50:48;99757.56;;;6.39;99.17
9035;BME280;4552;43.422;24.592;2023-11-18T20:53:30;99747.16;;;6.30;98.59
9035;BME280;4552;43.422;24.592;2023-11-18T20:56:13;99754.13;;;6.38;99.03
9035;BME280;4552;43.422;24.592;2023-11-18T20:58:42;99765.38;;;6.43;98.30
9035;BME280;4552;43.422;24.592;2023-11-18T21:01:12;99758.41;;;6.59;97.92
9035;BME280;4552;43.422;24.592;2023-11-18T21:03:41;99756.69;;;6.61;96.86
9035;BME280;4552;43.422;24.592;2023-11-18T21:06:40;99765.38;;;6.55;96.08
9035;BME280;4552;43.422;24.592;2023-11-18T21:09:13;99769.72;;;6.34;96.14
9035;BME280;4552;43.422;24.592;2023-11-18T21:11:41;99747.16;;;6.33;95.49
9035;BME280;4552;43.422;24.592;2023-11-18T21:14:08;99759.31;;;6.31;94.83
9035;BME280;4552;43.422;24.592;2023-11-18T21:16:35;99754.13;;;6.44;94.81
9035;BME280;4552;43.422;24.592;2023-11-18T21:19:16;99748.03;;;6.33;94.00
9035;BME280;4552;43.422;24.592;2023-11-18T21:24:45;99754.13;;;6.43;92.89
9035;BME280;4552;43.422;24.592;2023-11-18T21:27:12;99762.75;;;6.36;92.20
9035;BME280;4552;43.422;24.592;2023-11-18T21:29:49;99767.09;;;6.47;92.49
9035;BME280;4552;43.422;24.592;2023-11-18T22:34:28;99837.28;;;6.31;90.65
9035;BME280;4552;43.422;24.592;2023-11-18T22:36:56;99835.53;;;6.39;90.75
9035;BME280;4552;43.422;24.592;2023-11-18T22:39:25;99841.63;;;6.45;90.43
9035;BME280;4552;43.422;24.592;2023-11-18T22:42:26;99827.75;;;6.40;89.98
9035;BME280;4552;43.422;24.592;2023-11-18T22:45:28;99832.09;;;6.31;90.62
9035;BME280;4552;43.422;24.592;2023-11-18T22:47:56;99848.53;;;6.31;90.89
9035;BME280;4552;43.422;24.592;2023-11-18T22:50:40;99839.88;;;6.26;90.54
9035;BME280;4552;43.422;24.592;2023-11-18T22:53:26;99832.91;;;6.16;91.68
